createdAt,value
2023-01-30T00:01:45.149Z,99694.16
2023-01-30T00:04:14.265Z,99683.97
2023-01-30T00:06:42.414Z,99678.06
2023-01-30T00:09:14.679Z,99668.75
2023-01-30T00:11:42.444Z,99665.38
2023-01-30T00:14:09.444Z,99667.09
2023-01-30T00:16:36.337Z,99650.06
2023-01-30T00:19:03.525Z,99631.38
2023-01-30T00:21:30.367Z,99642.47
2023-01-30T00:23:57.169Z,99638.22
2023-01-30T00:26:23.997Z,99643.31
2023-01-30T00:28:50.822Z,99636.50
2023-01-30T00:31:17.731Z,99626.31
2023-01-30T00:33:44.537Z,99624.59
2023-01-30T00:36:11.560Z,99635.63
2023-01-30T00:38:38.417Z,99622.88
2023-01-30T00:41:05.345Z,99626.28
2023-01-30T00:43:50.522Z,99622.06
2023-01-30T00:46:52.770Z,99617.78
2023-01-30T00:49:20.060Z,99616.09
2023-01-30T00:51:47.025Z,99611.84
2023-01-30T00:54:13.920Z,99621.22
2023-01-30T00:56:40.829Z,99614.38
2023-01-30T00:59:07.633Z,99613.56
2023-01-30T01:01:34.452Z,99616.94
2023-01-30T01:04:01.337Z,99632.22
2023-01-30T01:06:28.153Z,99626.31
2023-01-30T01:08:55.117Z,99642.44
2023-01-30T01:11:24.729Z,99651.78
2023-01-30T01:13:57.762Z,99630.47
2023-01-30T01:16:25.353Z,99667.91
2023-01-30T01:18:52.667Z,99650.03
2023-01-30T01:21:20.815Z,99685.75
2023-01-30T01:23:56.450Z,99691.72
2023-01-30T01:26:23.640Z,99691.66
2023-01-30T01:28:54.721Z,99685.75
2023-01-30T01:31:22.164Z,99700.19
2023-01-30T01:33:49.080Z,99701.03
2023-01-30T01:36:29.284Z,99684.03
2023-01-30T01:39:03.537Z,99707.88
2023-01-30T01:41:30.681Z,99685.75
2023-01-30T01:44:17.238Z,99706.16
2023-01-30T01:46:58.238Z,99701.94
2023-01-30T01:49:29.675Z,99693.44
2023-01-30T01:52:08.254Z,99673.88
2023-01-30T01:54:48.237Z,99676.38
2023-01-30T01:57:27.450Z,99685.75
2023-01-30T02:00:19.835Z,99687.47
2023-01-30T02:02:57.354Z,99686.66
2023-01-30T02:05:32.202Z,99695.16
2023-01-30T02:08:19.945Z,99693.47
2023-01-30T02:11:09.860Z,99694.31
2023-01-30T02:13:37.004Z,99706.22
2023-01-30T02:16:07.160Z,99693.44
2023-01-30T02:18:37.476Z,99622.84
2023-01-30T02:21:28.794Z,99696.84
2023-01-30T02:24:17.055Z,99690.91
2023-01-30T02:26:59.933Z,99696.00
2023-01-30T02:30:20.926Z,99667.13
2023-01-30T02:32:59.420Z,99684.13
2023-01-30T02:35:52.788Z,99684.13
2023-01-30T02:38:41.120Z,99642.44
2023-01-30T02:41:25.662Z,99653.53
2023-01-30T02:44:44.694Z,99657.78
2023-01-30T02:47:21.387Z,99664.56
2023-01-30T02:49:56.123Z,99658.59
2023-01-30T02:52:24.075Z,99655.22
2023-01-30T02:54:50.871Z,99632.25
2023-01-30T02:57:24.487Z,99623.78
2023-01-30T03:00:04.087Z,99639.91
2023-01-30T03:03:27.013Z,99670.53
2023-01-30T03:06:27.663Z,99667.94
2023-01-30T03:09:12.937Z,99656.91
2023-01-30T03:12:02.321Z,99642.44
2023-01-30T03:15:00.258Z,99622.91
2023-01-30T03:17:28.583Z,99628.78
2023-01-30T03:19:56.629Z,99596.53
2023-01-30T03:22:23.465Z,99609.28
2023-01-30T03:24:53.593Z,99613.56
2023-01-30T03:27:22.172Z,99598.25
2023-01-30T03:29:49.161Z,99600.75
2023-01-30T03:32:15.985Z,99566.78
2023-01-30T03:34:42.820Z,99565.97
2023-01-30T03:37:09.725Z,99539.63
2023-01-30T03:39:36.773Z,99500.53
2023-01-30T03:42:03.954Z,99510.72
2023-01-30T03:44:30.754Z,99537.94
2023-01-30T03:46:57.618Z,99534.53
2023-01-30T03:49:24.459Z,99540.47
2023-01-30T03:51:51.300Z,99548.97
2023-01-30T03:54:18.210Z,99544.75
2023-01-30T03:56:45.126Z,99548.97
2023-01-30T03:59:12.154Z,99541.34
2023-01-30T04:01:39.031Z,99550.66
2023-01-30T04:04:05.973Z,99548.97
2023-01-30T04:06:32.783Z,99531.16
2023-01-30T04:08:59.716Z,99523.47
2023-01-30T04:11:26.507Z,99519.22
2023-01-30T04:13:53.361Z,99527.72
2023-01-30T04:16:24.712Z,99542.16
2023-01-30T04:18:52.197Z,99521.81
2023-01-30T04:21:19.510Z,99560.03
2023-01-30T04:23:46.322Z,99552.38
2023-01-30T04:26:13.930Z,99560.03
2023-01-30T04:28:41.099Z,99562.56
2023-01-30T04:31:08.334Z,99571.06
2023-01-30T04:33:35.467Z,99560.88
2023-01-30T04:36:04.769Z,99532.81
2023-01-30T04:38:32.559Z,99545.53
2023-01-30T04:40:59.651Z,99539.53
2023-01-30T04:43:28.278Z,99551.47
2023-01-30T04:45:55.613Z,99540.47
2023-01-30T04:48:24.555Z,99548.06
2023-01-30T04:50:54.767Z,99514.97
2023-01-30T04:53:22.615Z,99551.50
2023-01-30T04:55:49.851Z,99547.22
2023-01-30T04:58:19.432Z,99551.47
2023-01-30T05:00:47.390Z,99558.25
2023-01-30T05:03:15.426Z,99553.13
2023-01-30T05:05:42.280Z,99537.78
2023-01-30T05:08:09.442Z,99546.31
2023-01-30T05:10:36.245Z,99540.31
2023-01-30T05:13:06.311Z,99532.72
2023-01-30T05:15:33.628Z,99534.41
2023-01-30T05:18:00.986Z,99546.31
2023-01-30T05:20:27.950Z,99533.53
2023-01-30T05:22:54.786Z,99524.22
2023-01-30T05:25:21.753Z,99519.06
2023-01-30T05:27:48.661Z,99519.88
2023-01-30T05:30:15.612Z,99508.84
2023-01-30T05:32:42.462Z,99502.09
2023-01-30T05:35:09.588Z,99486.75
2023-01-30T05:37:37.866Z,99505.44
2023-01-30T05:40:05.993Z,99505.47
2023-01-30T05:42:33.369Z,99480.06
2023-01-30T05:45:00.297Z,99491.91
2023-01-30T05:47:27.284Z,99487.69
2023-01-30T05:49:54.143Z,99480.91
2023-01-30T05:52:20.971Z,99480.91
2023-01-30T05:54:47.853Z,99482.56
2023-01-30T05:57:14.651Z,99486.84
2023-01-30T05:59:41.581Z,99492.78
2023-01-30T06:02:09.228Z,99484.25
2023-01-30T06:04:37.293Z,99473.25
2023-01-30T06:07:04.100Z,99496.13
2023-01-30T06:09:30.890Z,99457.03
2023-01-30T06:11:57.706Z,99474.81
2023-01-30T06:14:24.545Z,99484.09
2023-01-30T06:16:51.411Z,99480.63
2023-01-30T06:19:18.304Z,99482.34
2023-01-30T06:21:45.127Z,99478.88
2023-01-30T06:24:11.937Z,99478.03
2023-01-30T06:26:38.724Z,99473.81
2023-01-30T06:29:05.552Z,99478.81
2023-01-30T06:31:32.480Z,99472.81
2023-01-30T06:33:59.323Z,99455.91
2023-01-30T06:36:26.085Z,99464.41
2023-01-30T06:38:52.971Z,99474.56
2023-01-30T06:41:20.022Z,99467.75
2023-01-30T06:43:46.864Z,99460.22
2023-01-30T06:46:13.784Z,99454.34
2023-01-30T06:48:40.652Z,99455.16
2023-01-30T06:51:07.475Z,99463.69
2023-01-30T06:53:34.323Z,99449.19
2023-01-30T06:56:02.040Z,99467.97
2023-01-30T06:58:29.090Z,99467.03
2023-01-30T07:00:56.495Z,99452.59
2023-01-30T07:03:23.789Z,99454.19
2023-01-30T07:05:50.642Z,99453.28
2023-01-30T07:08:17.543Z,99460.88
2023-01-30T07:10:45.450Z,99468.50
2023-01-30T07:13:12.617Z,99437.06
2023-01-30T07:15:39.668Z,99483.75
2023-01-30T07:18:06.470Z,99484.66
2023-01-30T07:20:33.449Z,99468.44
2023-01-30T07:23:00.639Z,99472.66
2023-01-30T07:25:29.364Z,99481.16
2023-01-30T07:28:01.742Z,99476.13
2023-01-30T07:30:31.528Z,99487.13
2023-01-30T07:32:59.939Z,99498.13
2023-01-30T07:35:29.374Z,99487.06
2023-01-30T07:37:56.544Z,99488.78
2023-01-30T07:40:24.171Z,99482.91
2023-01-30T07:43:05.977Z,99450.59
2023-01-30T07:45:47.670Z,99495.53
2023-01-30T07:48:18.605Z,99498.16
2023-01-30T07:50:46.687Z,99502.47
2023-01-30T07:53:16.125Z,99508.38
2023-01-30T07:55:43.170Z,99511.81
2023-01-30T07:58:14.717Z,99504.22
2023-01-30T08:00:41.592Z,99491.38
2023-01-30T08:03:14.296Z,99483.69
2023-01-30T08:05:41.224Z,99453.13
2023-01-30T08:08:08.122Z,99454.84
2023-01-30T08:10:34.920Z,99465.00
2023-01-30T08:13:01.839Z,99453.09
2023-01-30T08:15:33.449Z,99471.72
2023-01-30T08:18:00.639Z,99461.59
2023-01-30T08:20:28.496Z,99488.75
2023-01-30T08:22:55.778Z,99456.63
2023-01-30T08:25:23.050Z,99511.72
2023-01-30T08:27:50.491Z,99513.47
2023-01-30T08:30:18.937Z,99487.94
2023-01-30T08:32:45.988Z,99485.38
2023-01-30T08:35:13.173Z,99487.91
2023-01-30T08:37:41.374Z,99485.41
2023-01-30T08:40:09.620Z,99452.28
2023-01-30T08:42:36.499Z,99455.47
2023-01-30T08:45:03.740Z,99471.72
2023-01-30T08:47:31.184Z,99464.03
2023-01-30T08:49:58.024Z,99466.59
2023-01-30T08:52:24.799Z,99466.50
2023-01-30T08:54:53.210Z,99459.69
2023-01-30T08:57:20.718Z,99467.41
2023-01-30T08:59:47.676Z,99434.16
2023-01-30T09:02:14.541Z,99423.97
2023-01-30T09:04:41.350Z,99434.91
2023-01-30T09:07:08.681Z,99431.44
2023-01-30T09:09:35.883Z,99430.56
2023-01-30T09:12:02.689Z,99405.78
2023-01-30T09:14:29.563Z,99390.41
2023-01-30T09:16:56.531Z,99390.41
2023-01-30T09:19:25.992Z,99406.53
2023-01-30T09:21:53.678Z,99395.41
2023-01-30T09:24:26.181Z,99395.34
2023-01-30T09:26:54.553Z,99405.53
2023-01-30T09:29:21.458Z,99398.81
2023-01-30T09:31:48.311Z,99314.97
2023-01-30T09:34:15.411Z,99404.81
2023-01-30T09:36:42.886Z,99374.19
2023-01-30T09:39:10.179Z,99390.28
2023-01-30T09:41:55.399Z,99379.19
2023-01-30T09:45:11.343Z,99398.63
2023-01-30T09:47:51.836Z,99408.03
2023-01-30T09:50:46.804Z,99404.66
2023-01-30T09:53:31.983Z,99403.81
2023-01-30T09:55:59.746Z,99390.97
2023-01-30T09:58:57.048Z,99390.06
2023-01-30T10:01:51.607Z,99391.72
2023-01-30T10:04:39.044Z,99371.28
2023-01-30T10:07:13.308Z,99359.25
2023-01-30T10:10:03.615Z,99358.38
2023-01-30T10:13:03.526Z,99368.56
2023-01-30T10:16:10.342Z,99349.78
2023-01-30T10:18:48.237Z,99328.47
2023-01-30T10:21:24.983Z,99332.69
2023-01-30T10:24:25.451Z,99333.47
2023-01-30T10:26:53.115Z,99340.16
2023-01-30T10:29:37.926Z,99328.19
2023-01-30T10:32:27.017Z,99326.47
2023-01-30T10:35:00.599Z,99317.91
2023-01-30T10:37:38.874Z,99307.75
2023-01-30T10:40:26.802Z,99314.38
2023-01-30T10:43:40.105Z,99323.72
2023-01-30T10:46:51.551Z,99311.63
2023-01-30T10:49:30.463Z,99304.69
2023-01-30T10:52:31.248Z,99297.88
2023-01-30T10:55:38.027Z,99291.66
2023-01-30T10:58:26.487Z,99295.91
2023-01-30T11:01:04.218Z,99300.91
2023-01-30T11:03:42.463Z,99306.72
2023-01-30T11:06:17.762Z,99306.75
2023-01-30T11:08:45.211Z,99303.38
2023-01-30T11:11:47.683Z,99293.97
2023-01-30T11:14:14.527Z,99301.47
2023-01-30T11:16:55.364Z,99302.34
2023-01-30T11:19:33.634Z,99288.63
2023-01-30T11:22:05.939Z,99283.53
2023-01-30T11:24:40.375Z,99270.97
2023-01-30T11:27:27.896Z,99294.72
2023-01-30T11:30:09.946Z,99281.88
2023-01-30T11:32:37.178Z,99287.66
2023-01-30T11:35:06.997Z,99290.22
2023-01-30T11:37:38.932Z,99285.94
2023-01-30T11:40:23.786Z,99296.97
2023-01-30T11:43:13.886Z,99299.63
2023-01-30T11:45:49.268Z,99265.53
2023-01-30T11:48:33.097Z,99295.91
2023-01-30T11:51:12.863Z,99311.34
2023-01-30T11:53:49.699Z,99316.38
2023-01-30T11:56:27.237Z,99267.22
2023-01-30T11:59:07.597Z,99316.41
2023-01-30T12:01:36.784Z,99298.53
2023-01-30T12:04:12.004Z,99302.75
2023-01-30T12:06:42.811Z,99290.69
2023-01-30T12:09:32.566Z,99284.66
2023-01-30T12:11:59.433Z,99292.50
2023-01-30T12:14:41.874Z,99294.16
2023-01-30T12:17:21.281Z,99286.59
2023-01-30T12:20:14.819Z,99270.50
2023-01-30T12:23:00.205Z,99278.03
2023-01-30T12:25:35.765Z,99274.03
2023-01-30T12:28:12.617Z,99281.50
2023-01-30T12:31:01.856Z,99267.31
2023-01-30T12:33:32.984Z,99264.69
2023-01-30T12:36:13.775Z,99268.25
2023-01-30T12:38:57.923Z,99278.50
2023-01-30T12:41:55.417Z,99282.78
2023-01-30T12:44:53.698Z,99277.59
2023-01-30T12:48:01.088Z,99287.91
2023-01-30T12:50:48.307Z,99289.53
2023-01-30T12:53:27.112Z,99297.13
2023-01-30T12:56:35.563Z,99298.09
2023-01-30T12:59:24.360Z,99305.91
2023-01-30T13:02:31.496Z,99312.84
2023-01-30T13:05:11.192Z,99302.56
2023-01-30T13:08:00.208Z,99315.38
2023-01-30T13:10:52.319Z,99317.09
2023-01-30T13:13:43.940Z,99310.28
2023-01-30T13:17:09.336Z,99320.47
2023-01-30T13:20:02.492Z,99298.25
2023-01-30T13:22:56.290Z,99310.16
2023-01-30T13:26:05.375Z,99299.19
2023-01-30T13:29:21.052Z,99310.28
2023-01-30T13:31:59.375Z,99290.06
2023-01-30T13:34:45.652Z,99324.75
2023-01-30T13:37:18.420Z,99329.25
2023-01-30T13:40:15.899Z,99330.88
2023-01-30T13:43:02.386Z,99323.03
2023-01-30T13:45:36.831Z,99319.81
2023-01-30T13:48:33.633Z,99306.38
2023-01-30T13:51:38.671Z,99326.63
2023-01-30T13:54:46.645Z,99343.88
2023-01-30T13:57:40.637Z,99348.78
2023-01-30T14:00:30.217Z,99356.44
2023-01-30T14:03:06.547Z,99356.56
2023-01-30T14:05:51.725Z,99378.78
2023-01-30T14:08:48.951Z,99367.56
2023-01-30T14:11:43.037Z,99346.38
2023-01-30T14:14:15.911Z,99359.91
2023-01-30T14:16:52.812Z,99346.47
2023-01-30T14:19:41.090Z,99371.88
2023-01-30T14:22:20.337Z,99347.28
2023-01-30T14:25:25.254Z,99370.09
2023-01-30T14:27:54.005Z,99368.47
2023-01-30T14:30:59.148Z,99367.59
2023-01-30T14:33:26.015Z,99374.38
2023-01-30T14:35:58.995Z,99376.09
2023-01-30T14:38:27.996Z,99382.09
2023-01-30T14:41:00.766Z,99382.91
2023-01-30T14:43:42.660Z,99390.56
2023-01-30T14:46:18.284Z,99395.72
2023-01-30T14:48:50.834Z,99393.06
2023-01-30T14:51:43.405Z,99406.03
2023-01-30T14:54:13.912Z,99406.97
2023-01-30T14:57:05.675Z,99413.78
2023-01-30T14:59:59.741Z,99409.31
2023-01-30T15:02:44.208Z,99406.84
2023-01-30T15:05:27.685Z,99428.22
2023-01-30T15:08:10.677Z,99441.78
2023-01-30T15:11:04.800Z,99446.94
2023-01-30T15:13:55.861Z,99435.09
2023-01-30T15:16:43.111Z,99445.09
2023-01-30T15:19:49.560Z,99457.00
2023-01-30T15:22:42.807Z,99445.78
2023-01-30T15:25:43.702Z,99453.44
2023-01-30T15:28:36.062Z,99465.34
2023-01-30T15:31:18.707Z,99472.22
2023-01-30T15:33:51.773Z,99474.63
2023-01-30T15:36:32.150Z,99480.56
2023-01-30T15:39:06.600Z,99478.84
2023-01-30T15:41:40.597Z,99492.50
2023-01-30T15:44:36.491Z,99488.19
2023-01-30T15:47:21.317Z,99484.84
2023-01-30T15:50:05.284Z,99495.91
2023-01-30T15:52:49.632Z,99485.66
2023-01-30T15:55:27.211Z,99470.31
2023-01-30T15:58:04.190Z,99455.84
2023-01-30T16:00:40.350Z,99474.59
2023-01-30T16:03:14.691Z,99483.88
2023-01-30T16:05:55.352Z,99482.91
2023-01-30T16:08:33.580Z,99488.97
2023-01-30T16:11:01.222Z,99482.28
2023-01-30T16:13:29.206Z,99466.09
2023-01-30T16:16:25.942Z,99475.47
2023-01-30T16:19:01.825Z,99486.53
2023-01-30T16:21:35.876Z,99484.84
2023-01-30T16:24:17.988Z,99492.44
2023-01-30T16:27:01.082Z,99501.81
2023-01-30T16:29:31.658Z,99509.50
2023-01-30T16:31:58.928Z,99500.78
2023-01-30T16:34:36.021Z,99471.81
2023-01-30T16:37:16.513Z,99507.41
2023-01-30T16:39:45.658Z,99524.66
2023-01-30T16:42:28.080Z,99526.25
2023-01-30T16:45:49.544Z,99535.59
2023-01-30T16:48:25.440Z,99524.63
2023-01-30T16:51:01.301Z,99545.94
2023-01-30T16:53:31.109Z,99556.13
2023-01-30T16:56:09.814Z,99547.69
2023-01-30T16:58:38.869Z,99525.50
2023-01-30T17:01:08.466Z,99551.84
2023-01-30T17:03:39.178Z,99540.81
2023-01-30T17:06:16.111Z,99551.19
2023-01-30T17:08:55.148Z,99575.03
2023-01-30T17:11:36.336Z,99574.25
2023-01-30T17:14:21.118Z,99560.63
2023-01-30T17:17:12.321Z,99555.75
2023-01-30T17:19:39.236Z,99578.69
2023-01-30T17:22:17.806Z,99568.56
2023-01-30T17:24:44.628Z,99586.28
2023-01-30T17:27:11.427Z,99584.69
2023-01-30T17:29:43.163Z,99598.34
2023-01-30T17:32:14.060Z,99605.19
2023-01-30T17:36:24.615Z,99589.84
2023-01-30T17:37:27.923Z,99602.94
2023-01-30T17:39:54.763Z,99615.50
2023-01-30T17:42:22.235Z,99616.22
2023-01-30T17:44:49.336Z,99634.03
2023-01-30T17:47:16.250Z,99619.59
2023-01-30T17:49:43.055Z,99635.78
2023-01-30T17:52:13.257Z,99642.50
2023-01-30T17:54:40.939Z,99644.13
2023-01-30T17:57:10.344Z,99594.31
2023-01-30T17:59:37.166Z,99649.41
2023-01-30T18:02:04.179Z,99651.94
2023-01-30T18:04:31.011Z,99652.91
2023-01-30T18:07:04.480Z,99661.44
2023-01-30T18:09:31.928Z,99654.81
2023-01-30T18:11:58.803Z,99640.31
2023-01-30T18:14:25.631Z,99658.84
2023-01-30T18:16:52.566Z,99662.22
2023-01-30T18:19:23.867Z,99661.38
2023-01-30T18:21:51.072Z,99646.09
2023-01-30T18:24:18.492Z,99676.78
2023-01-30T18:26:46.289Z,99671.81
2023-01-30T18:29:13.557Z,99634.38
2023-01-30T18:31:40.916Z,99681.16
2023-01-30T18:34:09.599Z,99685.44
2023-01-30T18:36:36.702Z,99697.53
2023-01-30T18:39:04.749Z,99696.66
2023-01-30T18:41:32.041Z,99691.63
2023-01-30T18:44:01.924Z,99701.88
2023-01-30T18:46:29.656Z,99697.75
2023-01-30T18:48:57.290Z,99711.41
2023-01-30T18:51:27.714Z,99717.41
2023-01-30T18:53:55.751Z,99714.84
2023-01-30T18:56:32.604Z,99696.91
2023-01-30T18:59:05.459Z,99711.31
2023-01-30T19:01:38.755Z,99726.72
2023-01-30T19:04:09.077Z,99721.66
2023-01-30T19:06:42.242Z,99718.19
2023-01-30T19:09:13.689Z,99725.06
2023-01-30T19:11:59.460Z,99710.69
2023-01-30T19:14:27.428Z,99740.47
2023-01-30T19:16:54.599Z,99738.72
2023-01-30T19:19:21.938Z,99741.38
2023-01-30T19:21:50.534Z,99737.09
2023-01-30T19:24:17.417Z,99760.91
2023-01-30T19:26:45.312Z,99755.75
2023-01-30T19:29:12.204Z,99748.09
2023-01-30T19:31:39.172Z,99765.91
2023-01-30T19:34:06.343Z,99770.13
2023-01-30T19:36:35.035Z,99780.41
2023-01-30T19:39:03.748Z,99776.25
2023-01-30T19:41:34.777Z,99784.94
2023-01-30T19:44:04.160Z,99784.03
2023-01-30T19:46:31.610Z,99796.97
2023-01-30T19:48:58.684Z,99797.88
2023-01-30T19:51:29.581Z,99796.91
2023-01-30T19:54:05.419Z,99787.56
2023-01-30T19:56:33.297Z,99768.81
2023-01-30T19:59:01.609Z,99781.53
2023-01-30T20:01:32.802Z,99781.53
2023-01-30T20:04:01.273Z,99788.31
2023-01-30T20:06:31.750Z,99764.59
2023-01-30T20:09:08.389Z,99795.13
2023-01-30T20:11:37.139Z,99802.88
2023-01-30T20:14:06.035Z,99805.38
2023-01-30T20:16:35.563Z,99813.91
2023-01-30T20:19:06.417Z,99801.22
2023-01-30T20:21:34.102Z,99804.63
2023-01-30T20:24:01.775Z,99807.19
2023-01-30T20:26:35.077Z,99816.59
2023-01-30T20:29:03.979Z,99824.28
2023-01-30T20:31:31.833Z,99824.19
2023-01-30T20:34:02.493Z,99820.69
2023-01-30T20:36:29.550Z,99820.66
2023-01-30T20:39:01.857Z,99825.78
2023-01-30T20:41:28.933Z,99818.09
2023-01-30T20:43:57.418Z,99824.91
2023-01-30T20:46:39.591Z,99821.41
2023-01-30T20:49:10.057Z,99834.22
2023-01-30T20:51:37.194Z,99831.72
2023-01-30T20:54:08.009Z,99832.59
2023-01-30T20:56:45.502Z,99845.44
2023-01-30T20:59:15.849Z,99831.00
2023-01-30T21:01:43.928Z,99835.94
2023-01-30T21:04:14.384Z,99815.63
2023-01-30T21:06:45.765Z,99840.34
2023-01-30T21:09:22.640Z,99842.06
2023-01-30T21:11:52.658Z,99842.00
2023-01-30T21:14:19.714Z,99832.63
2023-01-30T21:16:47.221Z,99839.53
2023-01-30T21:19:17.381Z,99839.50
2023-01-30T21:21:54.971Z,99842.84
2023-01-30T21:24:26.010Z,99838.53
2023-01-30T21:26:53.501Z,99839.41
2023-01-30T21:29:25.942Z,99848.84
2023-01-30T21:31:53.365Z,99852.25
2023-01-30T21:34:20.398Z,99816.59
2023-01-30T21:37:05.815Z,99858.22
2023-01-30T21:39:51.377Z,99851.34
2023-01-30T21:42:37.065Z,99855.56
2023-01-30T21:45:06.508Z,99855.53
2023-01-30T21:47:33.312Z,99864.09
2023-01-30T21:50:00.155Z,99864.13
2023-01-30T21:52:26.946Z,99872.72
2023-01-30T21:54:53.799Z,99864.13
2023-01-30T21:57:20.595Z,99868.34
2023-01-30T21:59:47.483Z,99864.06
2023-01-30T22:02:14.321Z,99876.03
2023-01-30T22:04:41.189Z,99875.16
2023-01-30T22:07:08.014Z,99889.72
2023-01-30T22:09:34.965Z,99888.88
2023-01-30T22:12:02.230Z,99888.88
2023-01-30T22:14:29.268Z,99898.31
2023-01-30T22:16:56.137Z,99891.47
2023-01-30T22:19:22.944Z,99895.84
2023-01-30T22:21:49.748Z,99890.69
2023-01-30T22:24:16.676Z,99877.00
2023-01-30T22:26:43.649Z,99856.50
2023-01-30T22:29:10.477Z,99882.03
2023-01-30T22:31:40.499Z,99871.78
2023-01-30T22:34:07.775Z,99878.44
2023-01-30T22:36:35.288Z,99880.97
2023-01-30T22:39:02.616Z,99879.41
2023-01-30T22:41:34.628Z,99879.38
2023-01-30T22:44:04.114Z,99885.28
2023-01-30T22:46:34.872Z,99891.25
2023-01-30T22:49:04.128Z,99889.53
2023-01-30T22:51:34.374Z,99856.31
2023-01-30T22:54:07.656Z,99899.78
2023-01-30T22:56:40.952Z,99895.44
2023-01-30T22:59:08.537Z,99890.44
2023-01-30T23:01:39.377Z,99887.94
2023-01-30T23:04:12.024Z,99885.25
2023-01-30T23:06:39.734Z,99879.41
2023-01-30T23:09:09.472Z,99872.59
2023-01-30T23:11:41.707Z,99887.78
2023-01-30T23:14:11.456Z,99884.28
2023-01-30T23:16:40.633Z,99885.13
2023-01-30T23:19:09.876Z,99887.72
2023-01-30T23:21:46.755Z,99891.91
2023-01-30T23:24:17.550Z,99890.22
2023-01-30T23:26:48.574Z,99892.78
2023-01-30T23:29:19.296Z,99881.66
2023-01-30T23:31:47.736Z,99878.19
2023-01-30T23:34:17.904Z,99889.31
2023-01-30T23:36:46.244Z,99881.66
2023-01-30T23:39:14.298Z,99878.31
2023-01-30T23:41:42.379Z,99889.47
2023-01-30T23:44:10.108Z,99883.41
2023-01-30T23:46:40.658Z,99875.75
2023-01-30T23:49:13.867Z,99881.13
2023-01-30T23:51:44.238Z,99877.75
2023-01-30T23:54:12.607Z,99884.56
2023-01-30T23:56:43.181Z,99876.81
2023-01-30T23:59:10.916Z,99839.41
